Accueil
METAR-TAF:

METAR-TAF

Aéroports :

Anvers, Belgique

Aéroport d'Anvers

latitude: 51-12N, longitude: 004-28E, altitude: 12 m

Observation

Le bulletin a été fait il y a 13 minutes, à 13:50 UTC
Vent 14 kt de est, variant entre nord-est et est/sud-est
Température 5°C
Humidité 33%
Pression 1022 hPa
Visibilité 10 km ou plus
pas de nuages en-dessous de 1500 mètres et pas de cumulonimbus.

METAR: EBAW 241350Z 08014KT 050V110 CAVOK 05/M10 Q1022 TEMPO 08016G26KT

Heure: 15:03 (14:03 UTC)

Prévision

Le bulletin a été fait il y a 2 heures et 53 minutes, à 11:10 UTC
Prévision valable du 24 à 12 UTC au 24 à 21 UTC
Vent 12 kt de est/nord-est
Visibilité 10 km ou plus
pas de nuages en-dessous de 1500 mètres et pas de cumulonimbus.
Probabilité 40% :
Temporairement
du 24 à 12 UTC au 24 à 16 UTC
Vent 15 kt de est/nord-est avec des rafales jusqu'à 25 kt

TAF: EBAW 241110Z 2412/2421 07012KT CAVOK PROB40 TEMPO 2412/2416 07015G25KT

Observations et prévisions météorologiques de plus de 4000 aéroports (messages METAR et TAF).

Les stations disponibles sont représentées par des disques jaunes et rouges sur la carte.

Passer la souris dessus pour voir le nom de la station.

Cliquer dessus pour voir les observations et prévisions météorologiques.

Pour changer de carte: cliquez sur les boutons verts avec une croix noire pour zoomer, sur le bouton vert avec un tiret pour effectuer un zoom arrière, ou sur les flèches vertes pour les cartes adjacentes.


METAR-TAF: